createdAt,value
2022-07-29T00:01:48.396Z,22.66
2022-07-29T00:04:17.206Z,22.66
2022-07-29T00:06:46.140Z,22.66
2022-07-29T00:09:14.735Z,22.67
2022-07-29T00:11:44.255Z,22.67
2022-07-29T00:14:13.078Z,22.68
2022-07-29T00:16:42.040Z,22.73
2022-07-29T00:19:10.577Z,22.75
2022-07-29T00:21:39.853Z,22.75
2022-07-29T00:24:08.526Z,22.72
2022-07-29T00:26:37.098Z,22.76
2022-07-29T00:29:32.890Z,22.80
2022-07-29T00:31:54.787Z,22.82
2022-07-29T00:34:41.538Z,22.80
2022-07-29T00:37:10.086Z,22.78
2022-07-29T00:39:38.755Z,22.78
2022-07-29T00:42:07.434Z,22.77
2022-07-29T00:44:40.980Z,22.75
2022-07-29T00:47:11.190Z,22.73
2022-07-29T00:49:42.402Z,22.71
2022-07-29T00:52:12.543Z,22.70
2022-07-29T00:54:44.070Z,22.70
2022-07-29T00:57:13.527Z,22.65
2022-07-29T00:59:42.438Z,22.63
2022-07-29T01:02:11.175Z,22.61
2022-07-29T01:04:40.011Z,22.60
2022-07-29T01:07:09.303Z,22.56
2022-07-29T01:12:19.437Z,22.53
2022-07-29T01:17:55.548Z,22.52
2022-07-29T01:20:31.537Z,22.48
2022-07-29T01:23:11.395Z,22.46
2022-07-29T01:26:20.502Z,22.45
2022-07-29T01:29:08.354Z,22.42
2022-07-29T01:32:01.344Z,22.36
2022-07-29T01:34:50.869Z,22.31
2022-07-29T01:37:32.249Z,22.24
2022-07-29T01:40:04.010Z,22.17
2022-07-29T01:42:45.207Z,22.15
2022-07-29T01:45:21.219Z,22.11
2022-07-29T01:47:56.841Z,22.07
2022-07-29T01:50:32.443Z,22.04
2022-07-29T01:53:08.807Z,22.03
2022-07-29T01:55:42.353Z,21.98
2022-07-29T01:58:13.189Z,21.93
2022-07-29T02:00:43.656Z,21.89
2022-07-29T02:03:14.622Z,21.88
2022-07-29T02:05:47.414Z,21.86
2022-07-29T02:08:17.833Z,21.85
2022-07-29T02:10:48.726Z,21.81
2022-07-29T02:13:19.029Z,21.80
2022-07-29T02:15:48.856Z,21.79
2022-07-29T02:18:20.821Z,21.69
2022-07-29T02:20:56.739Z,21.68
2022-07-29T02:23:26.277Z,21.64
2022-07-29T02:25:58.376Z,21.59
2022-07-29T02:28:29.632Z,21.52
2022-07-29T02:31:04.613Z,21.49
2022-07-29T02:33:34.314Z,21.36
2022-07-29T02:36:05.122Z,21.26
2022-07-29T02:38:57.637Z,21.17
2022-07-29T02:41:31.815Z,21.13
2022-07-29T02:44:07.283Z,21.09
2022-07-29T02:46:38.953Z,21.01
2022-07-29T02:49:11.659Z,20.95
2022-07-29T02:51:56.299Z,20.87
2022-07-29T02:54:41.687Z,20.76
2022-07-29T02:57:25.001Z,20.66
2022-07-29T02:59:57.286Z,20.55
2022-07-29T03:02:28.004Z,20.46
2022-07-29T03:05:00.119Z,20.38
2022-07-29T03:07:29.966Z,20.31
2022-07-29T03:10:02.291Z,20.24
2022-07-29T03:12:32.424Z,20.16
2022-07-29T03:15:01.670Z,20.12
2022-07-29T03:17:30.181Z,20.07
2022-07-29T03:19:58.887Z,20.01
2022-07-29T03:22:28.262Z,19.97
2022-07-29T03:24:56.871Z,19.91
2022-07-29T03:27:25.418Z,19.81
2022-07-29T03:29:53.694Z,19.79
2022-07-29T03:32:25.087Z,19.79
2022-07-29T03:34:53.648Z,19.77
2022-07-29T03:37:22.152Z,19.74
2022-07-29T03:39:53.307Z,19.67
2022-07-29T03:42:25.479Z,19.60
2022-07-29T03:44:54.903Z,19.52
2022-07-29T03:47:39.331Z,19.49
2022-07-29T03:50:17.627Z,19.42
2022-07-29T03:52:46.137Z,19.35
2022-07-29T03:55:14.733Z,19.33
2022-07-29T03:57:43.833Z,19.34
2022-07-29T04:00:12.969Z,19.35
2022-07-29T04:02:42.117Z,19.34
2022-07-29T04:05:15.677Z,19.33
2022-07-29T04:07:50.984Z,19.27
2022-07-29T04:10:30.299Z,19.24
2022-07-29T04:13:01.604Z,19.19
2022-07-29T04:15:31.330Z,19.16
2022-07-29T04:18:01.200Z,19.11
2022-07-29T04:20:29.458Z,19.06
2022-07-29T04:22:58.169Z,19.04
2022-07-29T04:25:26.406Z,19.03
2022-07-29T04:28:03.582Z,18.98
2022-07-29T04:30:34.167Z,18.88
2022-07-29T04:33:04.423Z,18.82
2022-07-29T04:35:37.940Z,18.78
2022-07-29T04:38:15.597Z,18.76
2022-07-29T04:40:49.761Z,18.74
2022-07-29T04:43:23.318Z,18.72
2022-07-29T04:45:52.223Z,18.71
2022-07-29T04:48:28.472Z,18.70
2022-07-29T04:50:58.710Z,18.63
2022-07-29T04:53:27.489Z,18.60
2022-07-29T04:55:55.868Z,18.59
2022-07-29T04:58:25.396Z,18.58
2022-07-29T05:00:53.687Z,18.52
2022-07-29T05:03:22.081Z,18.45
2022-07-29T05:05:50.537Z,18.37
2022-07-29T05:08:19.433Z,18.34
2022-07-29T05:10:48.116Z,18.34
2022-07-29T05:13:18.258Z,18.36
2022-07-29T05:15:46.554Z,18.33
2022-07-29T05:18:15.943Z,18.27
2022-07-29T05:20:44.348Z,18.23
2022-07-29T05:23:14.609Z,18.20
2022-07-29T05:25:44.572Z,18.17
2022-07-29T05:28:13.834Z,18.14
2022-07-29T05:30:42.660Z,18.13
2022-07-29T05:33:35.978Z,18.12
2022-07-29T05:36:00.844Z,18.11
2022-07-29T05:38:29.647Z,18.05
2022-07-29T05:41:00.692Z,18.00
2022-07-29T05:43:30.252Z,17.91
2022-07-29T05:45:59.381Z,17.83
2022-07-29T05:48:27.993Z,17.77
2022-07-29T05:50:57.089Z,17.73
2022-07-29T05:53:25.633Z,17.69
2022-07-29T05:55:54.403Z,17.65
2022-07-29T05:58:23.089Z,17.69
2022-07-29T06:00:51.698Z,17.73
2022-07-29T06:03:20.236Z,17.73
2022-07-29T06:05:48.617Z,17.72
2022-07-29T06:08:17.131Z,17.67
2022-07-29T06:10:45.518Z,17.62
2022-07-29T06:13:14.625Z,17.60
2022-07-29T06:15:43.221Z,17.62
2022-07-29T06:18:12.575Z,17.64
2022-07-29T06:20:42.517Z,17.63
2022-07-29T06:23:12.037Z,17.63
2022-07-29T06:25:42.789Z,17.62
2022-07-29T06:28:11.761Z,17.60
2022-07-29T06:30:41.221Z,17.58
2022-07-29T06:33:10.445Z,17.57
2022-07-29T06:35:42.631Z,17.56
2022-07-29T06:38:33.838Z,17.55
2022-07-29T06:41:07.735Z,17.53
2022-07-29T06:43:50.207Z,17.53
2022-07-29T06:46:22.091Z,17.49
2022-07-29T06:48:51.591Z,17.45
2022-07-29T06:51:22.510Z,17.43
2022-07-29T06:53:59.448Z,17.42
2022-07-29T06:56:32.555Z,17.42
2022-07-29T06:59:07.382Z,17.41
2022-07-29T07:01:35.903Z,17.40
2022-07-29T07:04:05.511Z,17.40
2022-07-29T07:06:33.901Z,17.39
2022-07-29T07:09:05.406Z,17.40
2022-07-29T07:11:34.480Z,17.38
2022-07-29T07:14:05.565Z,17.36
2022-07-29T07:16:34.263Z,17.37
2022-07-29T07:19:02.941Z,17.35
2022-07-29T07:21:31.956Z,17.35
2022-07-29T07:24:01.682Z,17.32
2022-07-29T07:26:30.632Z,17.28
2022-07-29T07:28:59.068Z,17.25
2022-07-29T07:31:27.530Z,17.25
2022-07-29T07:33:55.852Z,17.24
2022-07-29T07:36:25.039Z,17.22
2022-07-29T07:38:53.294Z,17.19
2022-07-29T07:41:24.717Z,17.18
2022-07-29T07:43:53.038Z,17.14
2022-07-29T07:46:21.424Z,17.11
2022-07-29T07:48:53.191Z,17.11
2022-07-29T07:51:22.612Z,17.13
2022-07-29T07:53:54.008Z,17.15
2022-07-29T07:56:23.208Z,17.16
2022-07-29T07:58:51.688Z,17.15
2022-07-29T08:01:21.599Z,17.15
2022-07-29T08:03:50.278Z,17.16
2022-07-29T08:06:19.304Z,17.15
2022-07-29T08:08:47.916Z,17.15
2022-07-29T08:11:16.667Z,17.13
2022-07-29T08:13:45.671Z,17.14
2022-07-29T08:16:14.541Z,17.14
2022-07-29T08:18:44.479Z,17.13
2022-07-29T08:21:14.759Z,17.10
2022-07-29T08:23:58.459Z,17.07
2022-07-29T08:26:29.239Z,17.05
2022-07-29T08:28:57.568Z,17.03
2022-07-29T08:31:25.906Z,17.02
2022-07-29T08:33:54.390Z,17.01
2022-07-29T08:36:22.807Z,16.99
2022-07-29T08:38:51.429Z,16.99
2022-07-29T08:41:21.237Z,16.98
2022-07-29T08:43:51.218Z,16.99
2022-07-29T08:46:20.368Z,16.98
2022-07-29T08:48:50.155Z,16.98
2022-07-29T08:51:21.285Z,16.97
2022-07-29T08:53:52.001Z,16.99
2022-07-29T08:56:24.299Z,17.00
2022-07-29T08:58:52.785Z,16.97
2022-07-29T09:01:36.225Z,16.98
2022-07-29T09:04:13.634Z,16.98
2022-07-29T09:06:48.257Z,16.98
2022-07-29T09:09:16.853Z,16.97
2022-07-29T09:11:46.144Z,16.99
2022-07-29T09:14:15.736Z,16.98
2022-07-29T09:16:53.541Z,16.99
2022-07-29T09:19:31.121Z,17.00
2022-07-29T09:22:07.102Z,17.01
2022-07-29T09:24:49.792Z,17.02
2022-07-29T09:27:28.553Z,17.01
2022-07-29T09:30:16.622Z,17.04
2022-07-29T09:33:03.027Z,17.03
2022-07-29T09:35:34.436Z,17.06
2022-07-29T09:38:15.984Z,17.07
2022-07-29T09:40:57.802Z,17.06
2022-07-29T09:43:31.800Z,17.04
2022-07-29T09:46:16.545Z,17.04
2022-07-29T09:48:45.220Z,17.03
2022-07-29T09:51:37.621Z,17.05
2022-07-29T09:54:30.119Z,17.05
2022-07-29T09:56:58.293Z,17.01
2022-07-29T09:59:28.443Z,17.03
2022-07-29T10:01:57.620Z,17.05
2022-07-29T10:04:26.336Z,17.05
2022-07-29T10:07:04.731Z,17.04
2022-07-29T10:09:34.592Z,17.02
2022-07-29T10:12:15.731Z,17.03
2022-07-29T10:14:44.647Z,17.02
2022-07-29T10:17:13.715Z,17.03
2022-07-29T10:19:42.091Z,17.02
2022-07-29T10:22:12.229Z,17.04
2022-07-29T10:24:41.199Z,17.08
2022-07-29T10:27:11.256Z,17.08
2022-07-29T10:29:39.751Z,17.06
2022-07-29T10:32:29.420Z,17.08
2022-07-29T10:35:03.411Z,17.05
2022-07-29T10:37:35.999Z,17.02
2022-07-29T10:40:59.009Z,17.03
2022-07-29T10:43:42.315Z,17.03
2022-07-29T10:46:12.942Z,17.06
2022-07-29T10:49:12.030Z,17.10
2022-07-29T10:51:53.014Z,17.11
2022-07-29T10:54:42.279Z,17.10
2022-07-29T11:00:11.054Z,17.07
2022-07-29T11:02:44.600Z,17.06
2022-07-29T11:05:25.369Z,17.06
2022-07-29T11:08:19.486Z,17.03
2022-07-29T11:10:50.518Z,17.02
2022-07-29T11:13:50.022Z,17.01
2022-07-29T11:16:21.353Z,16.99
2022-07-29T11:19:14.474Z,17.01
2022-07-29T11:22:05.167Z,16.97
2022-07-29T11:24:34.852Z,16.92
2022-07-29T11:27:11.222Z,16.94
2022-07-29T11:30:05.613Z,16.95
2022-07-29T11:32:44.910Z,16.94
2022-07-29T11:38:28.560Z,16.92
2022-07-29T11:41:37.935Z,16.93
2022-07-29T11:44:08.923Z,16.88
2022-07-29T11:46:51.473Z,16.92
2022-07-29T11:49:31.665Z,16.90
2022-07-29T11:52:05.040Z,16.90
2022-07-29T11:54:38.969Z,16.92
2022-07-29T12:00:14.465Z,16.93
2022-07-29T12:02:48.067Z,16.95
2022-07-29T12:05:36.019Z,16.95
2022-07-29T12:07:01.567Z,16.92
2022-07-29T12:07:03.797Z,16.92
2022-07-29T12:08:15.800Z,16.98
2022-07-29T12:10:45.671Z,16.97
2022-07-29T12:13:16.548Z,16.99
2022-07-29T12:15:53.561Z,16.98
2022-07-29T12:18:24.153Z,16.98
2022-07-29T12:21:06.630Z,17.03
2022-07-29T12:23:35.787Z,17.07
2022-07-29T12:26:11.056Z,17.10
2022-07-29T12:28:51.063Z,17.08
2022-07-29T12:31:42.180Z,17.06
2022-07-29T12:34:15.274Z,17.07
2022-07-29T12:36:46.567Z,17.17
2022-07-29T12:39:17.968Z,17.24
2022-07-29T12:41:54.201Z,17.31
2022-07-29T12:44:53.429Z,17.36
2022-07-29T12:47:26.331Z,17.38
2022-07-29T12:50:26.171Z,17.41
2022-07-29T12:52:55.594Z,17.26
2022-07-29T12:55:53.559Z,17.07
2022-07-29T12:58:58.014Z,16.92
2022-07-29T13:05:24.544Z,16.61
2022-07-29T13:23:03.191Z,16.32
2022-07-29T13:26:24.752Z,16.34
2022-07-29T13:28:54.225Z,16.35
2022-07-29T13:31:23.987Z,16.35
2022-07-29T13:33:52.464Z,16.30
2022-07-29T13:36:21.642Z,16.28
2022-07-29T13:47:32.692Z,16.23
2022-07-29T13:50:22.629Z,16.17
2022-07-29T13:52:52.538Z,16.13
2022-07-29T13:55:21.436Z,16.14
2022-07-29T14:02:25.753Z,16.14
2022-07-29T14:05:21.686Z,16.16
2022-07-29T14:11:26.650Z,16.14
2022-07-29T14:14:07.556Z,16.13
2022-07-29T14:16:52.551Z,16.14
2022-07-29T14:19:20.928Z,16.14
2022-07-29T14:24:37.365Z,16.16
2022-07-29T14:25:21.257Z,16.17
2022-07-29T14:27:55.113Z,16.21
2022-07-29T14:30:26.925Z,16.24
2022-07-29T14:32:57.996Z,16.28
2022-07-29T14:35:26.319Z,16.32
2022-07-29T14:37:54.920Z,16.35
2022-07-29T14:40:23.278Z,16.33
2022-07-29T14:42:51.452Z,16.30
2022-07-29T14:45:19.845Z,16.25
2022-07-29T14:47:48.182Z,16.20
2022-07-29T14:50:16.442Z,16.16
2022-07-29T14:52:51.515Z,16.17
2022-07-29T14:55:20.354Z,16.17
2022-07-29T14:57:49.283Z,16.17
2022-07-29T15:00:18.220Z,16.19
2022-07-29T15:03:01.317Z,16.17
2022-07-29T15:05:31.697Z,16.17
2022-07-29T15:08:00.815Z,16.19
2022-07-29T15:10:29.972Z,16.22
2022-07-29T15:12:58.830Z,16.24
2022-07-29T15:15:27.641Z,16.26
2022-07-29T15:17:56.019Z,16.30
2022-07-29T15:20:27.082Z,16.32
2022-07-29T15:22:57.584Z,16.34
2022-07-29T15:25:26.395Z,16.38
2022-07-29T15:28:01.213Z,16.45
2022-07-29T15:30:33.270Z,16.50
2022-07-29T15:33:04.567Z,16.54
2022-07-29T15:35:33.011Z,16.58
2022-07-29T15:38:01.942Z,16.65
2022-07-29T15:40:30.569Z,16.70
2022-07-29T15:43:02.510Z,16.77
2022-07-29T15:45:31.645Z,16.87
2022-07-29T15:48:00.481Z,16.97
2022-07-29T15:50:28.778Z,17.04
2022-07-29T15:52:57.024Z,17.12
2022-07-29T15:55:25.420Z,17.22
2022-07-29T15:57:57.188Z,17.33
2022-07-29T16:00:31.158Z,17.49
2022-07-29T16:03:02.128Z,17.69
2022-07-29T16:05:30.606Z,17.80
2022-07-29T16:08:00.594Z,17.94
2022-07-29T16:10:31.724Z,18.09
2022-07-29T16:13:02.056Z,18.20
2022-07-29T16:15:34.947Z,18.26
2022-07-29T16:18:06.022Z,18.34
2022-07-29T16:20:34.290Z,18.46
2022-07-29T16:23:02.630Z,18.67
2022-07-29T16:25:58.779Z,18.88
2022-07-29T16:28:22.393Z,19.16
2022-07-29T16:30:52.064Z,19.29
2022-07-29T16:33:20.638Z,19.44
2022-07-29T16:35:48.920Z,19.63
2022-07-29T16:38:18.013Z,19.77
2022-07-29T16:40:46.406Z,19.81
2022-07-29T16:43:15.041Z,19.83
2022-07-29T16:45:45.989Z,19.73
2022-07-29T16:48:18.749Z,19.62
2022-07-29T16:50:52.839Z,19.49
2022-07-29T16:53:21.163Z,19.42
2022-07-29T16:55:49.492Z,19.37
2022-07-29T16:58:22.185Z,19.29
2022-07-29T17:00:50.597Z,19.25
2022-07-29T17:03:23.437Z,19.31
2022-07-29T17:05:53.982Z,19.41
2022-07-29T17:08:23.639Z,19.46
2022-07-29T17:10:52.156Z,19.48
2022-07-29T17:13:20.638Z,19.45
2022-07-29T17:16:02.892Z,19.42
2022-07-29T17:18:31.273Z,19.42
2022-07-29T17:21:01.524Z,19.43
2022-07-29T17:23:31.777Z,19.44
2022-07-29T17:26:00.067Z,19.44
2022-07-29T17:28:28.289Z,19.49
2022-07-29T17:30:56.669Z,19.59
2022-07-29T17:33:25.202Z,19.64
2022-07-29T17:36:11.992Z,19.67
2022-07-29T17:38:47.085Z,19.69
2022-07-29T17:41:16.209Z,19.71
2022-07-29T17:43:44.591Z,19.76
2022-07-29T17:46:13.089Z,19.79
2022-07-29T17:48:44.136Z,19.75
2022-07-29T17:51:12.207Z,19.71
2022-07-29T17:53:46.257Z,19.69
2022-07-29T17:56:14.954Z,19.67
2022-07-29T17:58:48.260Z,19.71
2022-07-29T18:01:17.422Z,19.75
2022-07-29T18:03:46.391Z,19.77
2022-07-29T18:06:15.015Z,19.76
2022-07-29T18:08:48.323Z,19.71
2022-07-29T18:11:17.239Z,19.76
2022-07-29T18:13:45.526Z,19.81
2022-07-29T18:16:13.942Z,19.83
2022-07-29T18:18:42.467Z,19.81
2022-07-29T18:21:10.941Z,19.80
2022-07-29T18:23:41.887Z,19.78
2022-07-29T18:26:11.063Z,19.78
2022-07-29T18:28:39.381Z,19.71
2022-07-29T18:31:08.420Z,19.68
2022-07-29T18:33:39.794Z,19.74
2022-07-29T18:36:11.659Z,19.83
2022-07-29T18:38:42.208Z,19.95
2022-07-29T18:41:10.579Z,20.05
2022-07-29T18:43:39.049Z,20.13
2022-07-29T18:46:07.639Z,20.16
2022-07-29T18:48:36.051Z,20.17
2022-07-29T18:51:09.371Z,20.22
2022-07-29T18:53:38.504Z,20.28
2022-07-29T18:56:06.905Z,20.24
2022-07-29T18:58:35.261Z,20.16
2022-07-29T19:01:03.639Z,20.11
2022-07-29T19:03:35.319Z,20.13
2022-07-29T19:06:03.674Z,20.17
2022-07-29T19:08:35.868Z,20.22
2022-07-29T19:11:04.319Z,20.19
2022-07-29T19:13:44.948Z,20.24
2022-07-29T19:16:19.416Z,20.17
2022-07-29T19:18:48.295Z,20.22
2022-07-29T19:21:16.546Z,20.29
2022-07-29T19:24:06.425Z,20.32
2022-07-29T19:26:47.668Z,20.34
2022-07-29T19:29:19.010Z,20.27
2022-07-29T19:31:50.310Z,20.24
2022-07-29T19:34:18.504Z,20.27
2022-07-29T19:36:49.736Z,20.37
2022-07-29T19:39:47.784Z,20.32
2022-07-29T19:45:00.894Z,20.37
2022-07-29T19:50:34.271Z,20.23
2022-07-29T19:54:19.218Z,20.18
2022-07-29T20:02:19.618Z,20.03
2022-07-29T20:04:48.235Z,20.12
2022-07-29T20:17:01.298Z,20.15
2022-07-29T20:20:18.269Z,20.24
2022-07-29T20:25:54.609Z,20.14
2022-07-29T20:29:11.534Z,20.00
2022-07-29T20:36:21.305Z,19.89
2022-07-29T20:38:54.669Z,19.94
2022-07-29T20:41:47.751Z,20.00
2022-07-29T20:44:21.823Z,19.97
2022-07-29T20:46:50.199Z,19.99
2022-07-29T20:49:21.677Z,20.01
2022-07-29T20:51:50.148Z,20.07
2022-07-29T20:57:03.193Z,20.18
2022-07-29T21:02:52.579Z,20.20
2022-07-29T21:05:21.018Z,20.28
2022-07-29T21:07:49.322Z,20.27
2022-07-29T21:10:20.700Z,20.27
2022-07-29T21:12:53.792Z,20.27
2022-07-29T21:15:22.971Z,20.27
2022-07-29T21:17:56.152Z,20.29
2022-07-29T21:20:28.144Z,20.30
2022-07-29T21:23:01.500Z,20.32
2022-07-29T21:29:20.230Z,20.31
2022-07-29T21:32:29.713Z,20.40
2022-07-29T21:36:02.063Z,20.41
2022-07-29T21:38:50.667Z,20.36
2022-07-29T21:41:20.963Z,20.36
2022-07-29T21:44:22.635Z,20.37
2022-07-29T21:47:19.590Z,20.42
2022-07-29T22:27:29.747Z,21.61
